Time;durP1;ratioP1;P1;durP2;ratioP2;P2;SDS_P1;SDS_P2;PMS_P1;PMS_P2;Temp;Humidity;BMP_temperature;BMP_pressure;BME280_temperature;BME280_humidity;BME280_pressure;Samples;Min_cycle;Max_cycle;Signal;HPM_P1;HPM_P2
2021/06/09 00:00:34;;;;;;;5.35;4.85;;;;;;;15.49;77.06;99662.98;1769740;80;21823;-72
2021/06/09 00:03:02;;;;;;;5.10;4.60;;;;;;;15.44;77.14;99662.17;1736893;79;20997;-72
2021/06/09 00:05:28;;;;;;;7.08;5.30;;;;;;;15.44;77.21;99665.30;1748036;80;21447;-71
2021/06/09 00:07:54;;;;;;;5.53;4.87;;;;;;;15.42;77.32;99659.33;1757532;80;21015;-71
2021/06/09 00:10:23;;;;;;;6.55;4.90;;;;;;;15.40;77.35;99660.83;1752073;80;21395;-71
2021/06/09 00:12:49;;;;;;;5.87;4.60;;;;;;;15.40;77.36;99656.84;1753288;79;21830;-71
2021/06/09 00:15:17;;;;;;;8.00;4.85;;;;;;;15.39;77.40;99657.84;1773284;79;21141;-71
2021/06/09 00:17:44;;;;;;;6.67;5.40;;;;;;;15.34;77.45;99649.53;1754717;80;21071;-71
2021/06/09 00:20:19;;;;;;;5.22;4.53;;;;;;;15.31;77.56;99652.54;1740796;79;21087;-71
2021/06/09 00:22:46;;;;;;;8.03;4.95;;;;;;;15.29;77.57;99641.74;1750567;80;21016;-71
2021/06/09 00:25:17;;;;;;;5.65;4.75;;;;;;;15.28;77.60;99654.22;1763914;79;21817;-71
2021/06/09 00:27:46;;;;;;;5.30;4.33;;;;;;;15.28;77.70;99645.41;1738060;81;20956;-71
2021/06/09 00:30:19;;;;;;;8.18;5.15;;;;;;;15.25;77.70;99649.72;1724325;82;20980;-71
2021/06/09 00:32:46;;;;;;;;;;;;;;;15.22;77.93;99650.89;1715001;83;21080;-71
2021/06/09 00:35:13;;;;;;;5.83;4.87;;;;;;;15.20;77.95;99642.25;1751810;79;20194;-71
2021/06/09 00:37:39;;;;;;;7.67;4.72;;;;;;;15.17;77.98;99639.95;1755150;80;21809;-72
2021/06/09 00:40:08;;;;;;;8.33;4.95;;;;;;;15.14;78.01;99646.41;1762545;79;21063;-71
2021/06/09 00:42:35;;;;;;;5.67;5.00;;;;;;;15.11;78.02;99657.40;1761003;79;21031;-71
2021/06/09 00:45:01;;;;;;;8.88;5.03;;;;;;;15.07;78.11;99661.91;1770818;80;20972;-71
2021/06/09 00:47:28;;;;;;;6.45;4.60;;;;;;;15.05;78.11;99661.22;1767208;79;21435;-71
2021/06/09 00:49:54;;;;;;;7.53;5.28;;;;;;;15.01;78.19;99647.44;1749073;79;22485;-71
2021/06/09 00:52:26;;;;;;;10.20;5.30;;;;;;;15.01;78.25;99651.92;1751597;80;21000;-71
2021/06/09 00:54:53;;;;;;;6.12;4.67;;;;;;;15.01;78.27;99650.59;1734657;80;20968;-74
2021/06/09 00:57:19;;;;;;;5.22;4.72;;;;;;;14.99;78.21;99654.76;1765158;80;20984;-71
2021/06/09 00:59:46;;;;;;;6.30;5.10;;;;;;;14.97;78.26;99655.94;1741738;79;21004;-71
2021/06/09 01:02:12;;;;;;;6.83;5.12;;;;;;;14.96;78.31;99654.24;1739057;81;21815;-71
2021/06/09 01:04:39;;;;;;;8.08;5.00;;;;;;;14.96;78.49;99652.91;1739371;81;20996;-71
2021/06/09 01:07:05;;;;;;;5.50;4.50;;;;;;;14.95;78.49;99652.58;1717136;81;21036;-71
2021/06/09 01:09:32;;;;;;;6.05;4.33;;;;;;;14.95;78.52;99651.25;1737164;81;21012;-71
2021/06/09 01:11:58;;;;;;;5.33;4.83;;;;;;;14.93;78.52;99650.09;1735858;82;21012;-71
2021/06/09 01:14:25;;;;;;;6.05;4.80;;;;;;;14.91;78.48;99640.63;1739121;81;21940;-73
2021/06/09 01:16:53;;;;;;;6.25;4.83;;;;;;;14.91;78.48;99635.31;1695810;83;21120;-71
2021/06/09 01:19:20;;;;;;;4.65;4.25;;;;;;;14.88;78.44;99638.66;1695012;83;21159;-71
2021/06/09 01:21:47;;;;;;;5.95;4.28;;;;;;;14.84;78.35;99637.80;1690346;82;22075;-71
2021/06/09 01:24:14;;;;;;;6.53;4.47;;;;;;;14.78;78.32;99643.81;1683177;83;21478;-72
2021/06/09 01:26:42;;;;;;;4.78;4.28;;;;;;;14.70;78.33;99646.46;1719014;82;21845;-71
2021/06/09 01:29:09;;;;;;;5.03;4.53;;;;;;;14.63;78.33;99644.95;1754418;79;21015;-71
2021/06/09 01:31:36;;;;;;;7.70;4.75;;;;;;;14.58;78.44;99642.81;1750375;80;21003;-71
2021/06/09 01:34:06;;;;;;;6.25;4.22;;;;;;;14.58;78.57;99647.30;1745424;80;21198;-71
2021/06/09 01:36:39;;;;;;;5.45;4.60;;;;;;;14.58;78.59;99652.61;1751313;80;20964;-71
2021/06/09 01:39:12;;;;;;;5.28;4.28;;;;;;;14.55;78.56;99647.60;1773547;79;21779;-71
2021/06/09 01:41:45;;;;;;;6.28;4.30;;;;;;;14.51;78.52;99654.26;1773689;80;21054;-71
2021/06/09 01:44:12;;;;;;;6.10;4.35;;;;;;;14.44;78.51;99663.84;1748376;79;21063;-72
2021/06/09 01:46:39;;;;;;;4.97;4.47;;;;;;;14.41;78.46;99667.66;1707378;82;21008;-71
2021/06/09 01:49:09;;;;;;;5.47;4.58;;;;;;;14.38;78.45;99661.36;1735951;82;20997;-71
2021/06/09 01:51:37;;;;;;;6.37;4.60;;;;;;;14.34;78.50;99669.30;1766593;80;21868;-71
2021/06/09 01:54:05;;;;;;;6.58;4.47;;;;;;;14.35;78.66;99669.63;1744079;80;20975;-71
2021/06/09 01:56:31;;;;;;;6.40;4.75;;;;;;;14.36;78.93;99661.99;1750438;80;21028;-71
2021/06/09 01:58:58;;;;;;;5.70;4.60;;;;;;;14.39;78.98;99659.03;1738677;80;21023;-71
2021/06/09 02:01:24;;;;;;;5.67;4.80;;;;;;;14.39;78.91;99664.34;1774061;79;20928;-71
2021/06/09 02:03:50;;;;;;;5.37;4.42;;;;;;;14.36;79.07;99665.14;1738430;80;21827;-71
2021/06/09 02:06:17;;;;;;;4.78;4.22;;;;;;;14.36;79.08;99663.32;1753083;80;20972;-71
2021/06/09 02:08:44;;;;;;;6.50;3.90;;;;;;;14.36;79.01;99669.96;1757311;79;20930;-71
2021/06/09 02:11:10;;;;;;;5.97;4.33;;;;;;;14.33;78.92;99669.80;1709302;81;21079;-71
2021/06/09 02:13:36;;;;;;;5.20;4.62;;;;;;;14.28;78.88;99668.14;1741146;82;21031;-71
2021/06/09 02:16:03;;;;;;;6.35;4.45;;;;;;;14.25;78.95;99661.81;1708359;81;21797;-71
2021/06/09 02:18:30;;;;;;;4.72;4.33;;;;;;;14.26;79.08;99669.28;1760338;80;21476;-71
2021/06/09 02:20:59;;;;;;;4.65;4.25;;;;;;;14.24;79.06;99665.46;1773258;79;21450;-71
2021/06/09 02:23:31;;;;;;;5.53;4.50;;;;;;;14.23;79.14;99667.78;1764034;80;21526;-71
2021/06/09 02:25:59;;;;;;;7.55;4.20;;;;;;;14.22;79.23;99661.31;1760576;80;20932;-71
2021/06/09 02:28:28;;;;;;;5.53;4.40;;;;;;;14.27;79.38;99665.13;1756090;79;21811;-71
2021/06/09 02:30:54;;;;;;;5.37;4.30;;;;;;;14.29;79.51;99659.68;1752309;79;20940;-71
2021/06/09 02:33:24;;;;;;;7.60;4.50;;;;;;;14.31;79.48;99667.81;1752786;80;21415;-71
2021/06/09 02:35:51;;;;;;;4.55;4.15;;;;;;;14.36;79.60;99666.48;1715820;81;20973;-71
2021/06/09 02:38:18;;;;;;;7.00;4.03;;;;;;;14.39;79.62;99673.64;1748569;79;21758;-71
2021/06/09 02:40:51;;;;;;;5.80;3.98;;;;;;;14.42;79.64;99669.32;1764925;80;22653;-71
2021/06/09 02:43:18;;;;;;;8.43;4.58;;;;;;;14.46;79.71;99662.70;1769316;80;21031;-72
2021/06/09 02:45:49;;;;;;;6.35;4.50;;;;;;;14.50;79.73;99661.40;1757772;79;21044;-71
2021/06/09 02:48:16;;;;;;;6.70;4.62;;;;;;;14.55;79.76;99658.23;1738474;81;20996;-71
2021/06/09 02:50:42;;;;;;;6.47;4.60;;;;;;;14.60;79.74;99661.24;1686457;83;21032;-71
2021/06/09 02:53:31;;;;;;;7.20;4.65;;;;;;;14.63;79.79;99658.24;1745137;80;21778;-72
2021/06/09 02:56:40;;;;;;;7.80;5.05;;;;;;;14.68;79.76;99657.27;1732970;81;20968;-71
2021/06/09 02:59:39;;;;;;;5.70;4.33;;;;;;;14.70;79.72;99661.91;1742456;80;21104;-72
2021/06/09 03:02:30;;;;;;;4.67;4.25;;;;;;;14.74;79.69;99659.23;1754579;80;21035;-71
2021/06/09 03:05:05;;;;;;;5.00;4.50;;;;;;;14.78;79.64;99655.27;1762125;79;21483;-71
2021/06/09 03:07:43;;;;;;;5.22;4.60;;;;;;;14.79;79.58;99658.27;1737262;82;21460;-71
2021/06/09 03:10:33;;;;;;;4.85;4.33;;;;;;;14.83;79.50;99658.24;1722904;81;21516;-71
2021/06/09 03:13:08;;;;;;;6.22;4.45;;;;;;;14.88;79.44;99660.42;1763502;80;21031;-72
2021/06/09 03:16:03;;;;;;;4.92;4.40;;;;;;;14.93;79.34;99664.72;1761598;79;21052;-71
2021/06/09 03:18:40;;;;;;;8.33;4.70;;;;;;;14.97;79.29;99665.23;1737034;80;20960;-73
2021/06/09 03:21:20;;;;;;;4.55;4.15;;;;;;;15.00;79.14;99667.05;1753607;80;21884;-72
2021/06/09 03:23:52;;;;;;;5.15;4.50;;;;;;;15.04;79.09;99669.70;1764814;79;21068;-72
2021/06/09 03:26:47;;;;;;;6.60;4.53;;;;;;;15.10;78.99;99672.20;1775964;80;20980;-72
2021/06/09 03:29:38;;;;;;;6.85;4.40;;;;;;;15.15;78.91;99677.36;1758981;80;20953;-72
2021/06/09 03:32:10;;;;;;;5.37;4.12;;;;;;;15.19;78.73;99677.84;1742907;80;21370;-72
2021/06/09 03:35:01;;;;;;;5.20;4.12;;;;;;;15.23;78.66;99668.52;1729403;82;21795;-71
2021/06/09 03:37:27;;;;;;;5.17;4.50;;;;;;;15.28;78.55;99666.19;1726253;81;21028;-72
2021/06/09 03:39:57;;;;;;;6.83;4.08;;;;;;;15.34;78.39;99668.16;1727376;82;20973;-72
2021/06/09 03:42:32;;;;;;;4.80;4.10;;;;;;;15.36;78.23;99667.51;1781330;80;21535;-72
2021/06/09 03:44:59;;;;;;;9.73;4.10;;;;;;;15.42;78.10;99664.65;1759539;79;21104;-73
2021/06/09 03:47:25;;;;;;;4.83;4.10;;;;;;;15.48;77.99;99659.16;1744603;80;21859;-72
2021/06/09 03:49:53;;;;;;;5.97;4.12;;;;;;;15.54;77.81;99666.44;1767873;79;20979;-75
2021/06/09 03:52:20;;;;;;;4.30;3.90;;;;;;;15.60;77.67;99663.97;1768239;79;21075;-75
2021/06/09 03:54:51;;;;;;;5.37;3.90;;;;;;;15.67;77.47;99663.62;1763382;79;21070;-74
2021/06/09 03:57:17;;;;;;;4.87;4.10;;;;;;;15.73;77.35;99664.78;1762654;79;21392;-74
2021/06/09 03:59:46;;;;;;;4.67;3.52;;;;;;;15.81;77.24;99676.70;1764058;79;22414;-74
2021/06/09 04:02:13;;;;;;;6.95;3.67;;;;;;;15.87;77.14;99675.19;1750209;80;21013;-69
2021/06/09 04:04:39;;;;;;;5.70;3.47;;;;;;;15.95;77.02;99681.83;1763025;80;20975;-71
2021/06/09 04:07:07;;;;;;;3.62;3.33;;;;;;;16.02;76.93;99678.80;1758009;80;21049;-71
2021/06/09 04:09:33;;;;;;;6.97;3.45;;;;;;;16.08;76.67;99674.09;1771036;79;20956;-70
2021/06/09 04:12:02;;;;;;;4.87;3.50;;;;;;;16.15;76.46;99674.23;1734795;80;21904;-70
2021/06/09 04:14:39;;;;;;;8.05;3.98;;;;;;;16.21;76.14;99669.05;1756690;79;21115;-80
2021/06/09 04:17:06;;;;;;;6.30;3.20;;;;;;;16.27;75.90;99674.16;1759226;80;21546;-76
2021/06/09 04:19:35;;;;;;;4.60;3.30;;;;;;;16.35;75.75;99673.28;1749002;80;21038;-76
2021/06/09 04:22:04;;;;;;;5.78;3.10;;;;;;;16.41;75.42;99669.92;1771553;79;20929;-77
2021/06/09 04:24:34;;;;;;;3.92;3.20;;;;;;;16.48;75.15;99669.02;1769937;79;21843;-78
2021/06/09 04:27:05;;;;;;;4.55;3.12;;;;;;;16.57;75.03;99669.80;1771226;79;21039;-76
2021/06/09 04:29:31;;;;;;;4.33;3.20;;;;;;;16.66;74.74;99667.91;1734594;78;21094;-79
2021/06/09 04:31:57;;;;;;;6.65;3.47;;;;;;;16.72;74.18;99669.91;1741390;80;21062;-75
2021/06/09 04:34:24;;;;;;;3.35;3.05;;;;;;;16.76;73.92;99673.35;1757974;80;21501;-75
2021/06/09 04:36:52;;;;;;;5.25;3.02;;;;;;;16.81;73.72;99672.84;1757519;79;22489;-74
2021/06/09 04:39:19;;;;;;;4.35;2.98;;;;;;;16.88;73.59;99673.25;1746849;80;20996;-75
2021/06/09 04:41:46;;;;;;;4.30;2.92;;;;;;;16.94;73.11;99672.22;1760346;79;20960;-74
2021/06/09 04:44:17;;;;;;;5.28;3.17;;;;;;;16.99;72.82;99674.69;1750738;80;20993;-75
2021/06/09 04:46:41;;;;;;;3.83;2.90;;;;;;;17.03;72.63;99669.30;1770962;79;21011;-74
2021/06/09 04:49:08;;;;;;;3.20;2.70;;;;;;;17.11;72.69;99666.56;1758828;79;21775;-75
2021/06/09 04:51:37;;;;;;;3.17;2.50;;;;;;;17.20;72.66;99672.66;1756951;80;21014;-75
2021/06/09 04:54:05;;;;;;;3.75;2.75;;;;;;;17.28;72.36;99674.42;1730576;80;21653;-75
2021/06/09 04:56:33;;;;;;;4.58;2.60;;;;;;;17.32;71.58;99681.04;1708588;80;21125;-74
2021/06/09 04:59:05;;;;;;;3.08;2.40;;;;;;;17.33;71.14;99669.34;1762709;80;21049;-73
2021/06/09 05:01:31;;;;;;;4.50;2.80;;;;;;;17.38;70.97;99673.65;1735313;80;21820;-73
2021/06/09 05:03:58;;;;;;;2.60;2.33;;;;;;;17.44;70.83;99680.40;1763080;80;21063;-74
2021/06/09 05:06:25;;;;;;;2.77;2.35;;;;;;;17.51;70.85;99679.17;1775664;80;20999;-74
2021/06/09 05:08:52;;;;;;;3.10;2.50;;;;;;;17.59;70.45;99679.59;1736588;80;20972;-74
2021/06/09 05:11:23;;;;;;;3.45;2.40;;;;;;;17.66;70.23;99685.36;1706800;82;21408;-74
2021/06/09 05:13:50;;;;;;;3.77;2.37;;;;;;;17.71;69.67;99681.64;1771273;79;21856;-74
2021/06/09 05:16:17;;;;;;;2.60;2.40;;;;;;;17.78;69.33;99689.75;1759847;80;21020;-73
2021/06/09 05:18:46;;;;;;;2.92;2.42;;;;;;;17.84;68.97;99687.66;1768108;79;20964;-75
2021/06/09 05:21:13;;;;;;;4.10;2.72;;;;;;;17.87;68.76;99685.97;1773142;79;21008;-75
2021/06/09 05:23:41;;;;;;;3.30;2.70;;;;;;;17.90;68.56;99689.60;1773801;78;20977;-74
2021/06/09 05:26:09;;;;;;;3.50;2.60;;;;;;;17.94;68.67;99683.37;1755545;80;21900;-74
2021/06/09 05:28:49;;;;;;;2.50;2.30;;;;;;;17.98;68.25;99686.00;1759444;79;21155;-77
2021/06/09 05:31:13;;;;;;;3.77;2.27;;;;;;;17.99;68.12;99680.47;1768445;79;21026;-75
2021/06/09 05:33:41;;;;;;;3.00;2.40;;;;;;;18.04;68.07;99683.91;1777629;80;21549;-74
2021/06/09 05:36:08;;;;;;;2.87;2.60;;;;;;;18.10;68.01;99675.66;1754625;79;21427;-74
2021/06/09 05:38:35;;;;;;;3.55;2.37;;;;;;;18.15;67.94;99674.61;1727434;79;21831;-75
2021/06/09 05:41:02;;;;;;;3.62;2.50;;;;;;;18.21;67.68;99675.17;1687495;83;21090;-74
2021/06/09 05:43:29;;;;;;;2.90;2.17;;;;;;;18.24;67.43;99678.83;1720612;81;21155;-74
2021/06/09 05:45:57;;;;;;;2.70;2.20;;;;;;;18.29;67.52;99680.41;1739437;81;21418;-74
2021/06/09 05:48:23;;;;;;;3.98;2.50;;;;;;;18.37;67.34;99680.81;1741133;82;21114;-74
2021/06/09 05:50:53;;;;;;;3.37;2.42;;;;;;;18.43;67.04;99686.72;1738895;81;21750;-74
2021/06/09 05:53:26;;;;;;;3.33;2.40;;;;;;;18.50;67.14;99688.45;1764851;80;20979;-73
2021/06/09 05:55:52;;;;;;;2.30;2.05;;;;;;;18.58;67.08;99687.51;1730159;80;21013;-74
2021/06/09 05:58:21;;;;;;;3.55;2.50;;;;;;;18.67;66.51;99693.09;1730315;80;21047;-75
2021/06/09 06:00:52;;;;;;;7.20;2.33;;;;;;;18.75;66.16;99696.98;1750846;80;21021;-73
2021/06/09 06:03:24;;;;;;;3.02;2.60;;;;;;;18.81;66.24;99699.38;1756606;79;22477;-75
2021/06/09 06:05:58;;;;;;;2.60;2.40;;;;;;;18.90;65.97;99698.75;1754295;80;21015;-74
2021/06/09 06:08:26;;;;;;;4.42;2.22;;;;;;;18.96;65.34;99702.83;1749068;79;21710;-75
2021/06/09 06:10:56;;;;;;;3.05;2.40;;;;;;;18.99;65.46;99701.61;1757052;80;21541;-77
2021/06/09 06:13:25;;;;;;;4.20;2.40;;;;;;;19.02;65.23;99706.09;1750692;79;21617;-75
2021/06/09 06:15:58;;;;;;;2.50;2.30;;;;;;;19.08;64.57;99695.92;1761812;79;21886;-75
2021/06/09 06:18:40;;;;;;;3.35;2.60;;;;;;;19.15;64.09;99700.01;1773262;79;21027;-75
2021/06/09 06:21:09;;;;;;;2.90;2.60;;;;;;;19.20;64.16;99701.58;1735070;80;21080;-74
2021/06/09 06:23:36;;;;;;;3.85;2.40;;;;;;;19.24;64.20;99692.66;1746636;80;21180;-73
2021/06/09 06:26:03;;;;;;;5.12;2.27;;;;;;;19.30;64.24;99695.88;1763539;79;20936;-75
2021/06/09 06:28:31;;;;;;;2.92;2.27;;;;;;;19.40;64.32;99689.70;1769764;79;21860;-73
2021/06/09 06:30:58;;;;;;;4.92;2.40;;;;;;;19.51;64.23;99695.03;1742235;79;21060;-76
2021/06/09 06:33:25;;;;;;;3.52;2.42;;;;;;;19.55;63.43;99697.11;1719537;82;21087;-74
2021/06/09 06:35:53;;;;;;;2.72;2.30;;;;;;;19.61;63.64;99694.20;1732527;81;21238;-74
2021/06/09 06:38:20;;;;;;;3.15;2.08;;;;;;;19.67;62.80;99690.71;1744080;80;21028;-72
2021/06/09 06:40:48;;;;;;;3.65;2.30;;;;;;;19.74;62.47;99691.58;1758691;79;21813;-73
2021/06/09 06:43:16;;;;;;;4.40;2.15;;;;;;;19.83;62.05;99695.76;1750977;79;21573;-73
2021/06/09 06:45:42;;;;;;;4.12;2.10;;;;;;;19.94;61.98;99689.00;1753866;80;21043;-73
2021/06/09 06:48:11;;;;;;;2.27;2.00;;;;;;;20.03;61.12;99698.53;1750963;80;21067;-72
2021/06/09 06:50:38;;;;;;;2.45;1.92;;;;;;;20.09;61.49;99696.92;1761722;79;21011;-73
2021/06/09 06:53:08;;;;;;;4.03;1.72;;;;;;;20.20;61.42;99690.47;1698965;81;21778;-72
2021/06/09 06:55:36;;;;;;;2.15;1.90;;;;;;;20.32;61.16;99692.56;1743736;79;21067;-72
2021/06/09 06:58:02;;;;;;;4.30;1.90;;;;;;;20.40;61.18;99692.38;1737987;79;20965;-73
2021/06/09 07:00:29;;;;;;;3.40;1.80;;;;;;;20.42;60.07;99686.30;1748522;79;21051;-73
2021/06/09 07:02:57;;;;;;;2.58;1.98;;;;;;;20.45;60.42;99690.77;1762724;79;21075;-72
2021/06/09 07:05:27;;;;;;;3.83;2.00;;;;;;;20.51;58.89;99693.98;1761973;80;21838;-73
2021/06/09 07:07:56;;;;;;;2.60;1.80;;;;;;;20.44;58.74;99693.14;1754438;78;21065;-73
2021/06/09 07:10:23;;;;;;;2.92;1.65;;;;;;;20.41;58.81;99696.72;1761683;79;20991;-72
2021/06/09 07:12:49;;;;;;;1.98;1.80;;;;;;;20.42;58.22;99693.00;1766991;78;20964;-72
2021/06/09 07:15:18;;;;;;;1.72;1.57;;;;;;;20.39;58.46;99695.59;1752839;80;20995;-73
2021/06/09 07:17:50;;;;;;;2.10;1.70;;;;;;;20.45;58.06;99690.77;1749651;79;21774;-73
2021/06/09 07:20:20;;;;;;;1.50;1.40;;;;;;;20.53;58.56;99696.47;1753785;79;21768;-74
2021/06/09 07:22:47;;;;;;;3.45;1.87;;;;;;;20.60;58.87;99695.15;1741285;79;21602;-74
2021/06/09 07:25:14;;;;;;;2.37;1.75;;;;;;;20.73;58.03;99697.84;1740545;80;21498;-73
2021/06/09 07:27:43;;;;;;;2.92;1.72;;;;;;;20.82;57.30;99697.96;1736131;79;21467;-74
2021/06/09 07:30:12;;;;;;;4.62;2.15;;;;;;;20.82;56.66;99694.77;1713380;81;21774;-74
2021/06/09 07:32:45;;;;;;;2.33;1.80;;;;;;;20.85;58.03;99691.69;1729226;81;20948;-71
2021/06/09 07:35:13;;;;;;;1.95;1.75;;;;;;;20.99;56.84;99692.52;1716269;82;20972;-72
2021/06/09 07:37:48;;;;;;;2.58;1.90;;;;;;;21.02;56.88;99687.23;1724899;81;21087;-73
2021/06/09 07:40:28;;;;;;;2.77;2.15;;;;;;;21.05;57.12;99690.36;1728326;82;21394;-74
2021/06/09 07:43:03;;;;;;;2.12;1.85;;;;;;;21.20;57.36;99690.65;1728464;81;21515;-70
2021/06/09 07:45:30;;;;;;;4.10;1.98;;;;;;;21.33;56.63;99688.83;1751523;79;21470;-69
2021/06/09 07:47:57;;;;;;;3.02;2.10;;;;;;;21.39;56.01;99689.33;1746417;80;20975;-69
2021/06/09 07:50:34;;;;;;;2.10;1.90;;;;;;;21.45;56.25;99692.23;1719004;80;21059;-73
2021/06/09 07:53:07;;;;;;;2.90;1.90;;;;;;;21.54;56.33;99697.69;1755479;80;21000;-77
2021/06/09 07:55:40;;;;;;;2.40;1.85;;;;;;;21.63;55.73;99695.09;1769565;79;21860;-74
2021/06/09 07:58:06;;;;;;;2.47;1.90;;;;;;;21.69;55.25;99692.37;1730751;80;21010;-74
2021/06/09 08:00:33;;;;;;;2.20;1.77;;;;;;;21.72;55.24;99692.48;1758478;79;20837;-74
2021/06/09 08:03:00;;;;;;;3.42;1.90;;;;;;;21.69;54.41;99684.30;1762027;80;20952;-75
2021/06/09 08:05:27;;;;;;;2.47;1.50;;;;;;;21.62;55.06;99690.75;1726027;80;20999;-75
2021/06/09 08:07:54;;;;;;;3.58;1.85;;;;;;;21.69;55.84;99688.34;1753968;78;21900;-76
2021/06/09 08:10:21;;;;;;;2.30;1.90;;;;;;;21.76;53.80;99688.33;1740363;81;20952;-74
2021/06/09 08:12:51;;;;;;;2.05;1.70;;;;;;;21.79;54.84;99687.07;1728121;81;21036;-74
2021/06/09 08:15:19;;;;;;;2.60;2.00;;;;;;;21.92;54.67;99695.12;1736059;82;21101;-77
2021/06/09 08:17:46;;;;;;;2.15;1.95;;;;;;;22.02;54.92;99687.42;1718142;82;21033;-75
2021/06/09 08:20:14;;;;;;;2.02;1.70;;;;;;;22.11;54.55;99692.91;1759536;79;22459;-73
2021/06/09 08:22:43;;;;;;;3.05;1.90;;;;;;;22.15;53.68;99691.42;1761508;79;21126;-72
2021/06/09 08:25:09;;;;;;;2.80;2.22;;;;;;;22.12;53.50;99695.07;1755827;80;21051;-75
2021/06/09 08:27:36;;;;;;;3.15;1.87;;;;;;;22.22;54.44;99694.92;1746516;80;21137;-75
2021/06/09 08:30:04;;;;;;;2.22;2.00;;;;;;;22.34;53.88;99692.38;1768572;80;21031;-75
2021/06/09 08:32:31;;;;;;;3.15;1.87;;;;;;;22.25;53.49;99682.90;1764037;80;21836;-75
2021/06/09 08:34:57;;;;;;;3.33;2.00;;;;;;;22.20;54.34;99691.62;1761869;80;21119;-73
2021/06/09 08:37:26;;;;;;;4.03;1.87;;;;;;;22.27;54.74;99690.23;1758550;79;20964;-74
2021/06/09 08:39:55;;;;;;;2.62;2.25;;;;;;;22.37;53.85;99686.55;1715867;82;20964;-73
2021/06/09 08:42:22;;;;;;;3.37;2.17;;;;;;;22.52;55.00;99695.70;1769182;80;20937;-73
2021/06/09 08:44:50;;;;;;;4.35;1.80;;;;;;;22.71;54.90;99692.58;1764895;80;22459;-73
2021/06/09 08:47:17;;;;;;;2.52;1.85;;;;;;;22.87;53.88;99693.41;1760052;79;21048;-73
2021/06/09 08:49:44;;;;;;;1.70;1.60;;;;;;;22.95;53.06;99696.37;1751615;79;21131;-73
2021/06/09 08:52:11;;;;;;;2.85;1.85;;;;;;;23.02;53.75;99694.45;1756004;80;21064;-73
2021/06/09 08:54:46;;;;;;;3.30;2.00;;;;;;;23.10;52.79;99695.53;1724898;82;20998;-73
2021/06/09 08:57:13;;;;;;;1.72;1.62;;;;;;;22.98;52.55;99697.30;1732405;80;22475;-73
2021/06/09 08:59:43;;;;;;;4.20;2.00;;;;;;;22.90;52.82;99698.38;1693308;82;20988;-74
2021/06/09 09:02:12;;;;;;;5.45;2.58;;;;;;;22.90;53.07;99694.87;1693355;82;21515;-73
2021/06/09 09:04:39;;;;;;;2.40;1.90;;;;;;;22.97;53.75;99691.58;1717206;82;21052;-73
2021/06/09 09:07:08;;;;;;;2.25;1.92;;;;;;;23.15;53.67;99692.98;1736343;79;21309;-72
2021/06/09 09:09:36;;;;;;;3.12;1.80;;;;;;;23.15;52.31;99688.95;1753936;79;21834;-73
2021/06/09 09:12:05;;;;;;;3.12;1.65;;;;;;;23.09;53.13;99692.02;1763859;80;20905;-73
2021/06/09 09:14:31;;;;;;;1.85;1.67;;;;;;;23.17;52.32;99682.02;1750666;79;21097;-73
2021/06/09 09:17:12;;;;;;;2.47;1.60;;;;;;;23.21;51.91;99688.08;1719797;81;21060;-72
2021/06/09 09:19:41;;;;;;;7.78;1.75;;;;;;;23.29;52.08;99680.25;1720013;80;21398;-72
2021/06/09 09:22:09;;;;;;;4.33;1.90;;;;;;;23.35;51.99;99678.81;1764127;80;21842;-73
2021/06/09 09:24:48;;;;;;;2.90;1.70;;;;;;;23.53;51.37;99676.67;1739533;79;21214;-74
2021/06/09 09:27:24;;;;;;;3.80;1.57;;;;;;;23.65;50.59;99680.86;1726509;81;21497;-73
2021/06/09 09:30:08;;;;;;;4.30;1.50;;;;;;;23.77;50.63;99668.27;1741948;82;20956;-73
2021/06/09 09:32:36;;;;;;;2.87;1.40;;;;;;;23.86;50.24;99670.15;1712505;81;20968;-73
2021/06/09 09:35:11;;;;;;;1.85;1.60;;;;;;;23.99;50.27;99664.58;1756798;79;21830;-73
2021/06/09 09:37:38;;;;;;;2.35;1.47;;;;;;;24.19;48.92;99667.84;1771204;80;21023;-74
2021/06/09 09:40:17;;;;;;;1.55;1.37;;;;;;;24.26;49.22;99668.59;1775257;79;20957;-74
2021/06/09 09:42:47;;;;;;;1.62;1.40;;;;;;;24.39;50.07;99667.61;1764153;79;21032;-73
2021/06/09 09:45:27;;;;;;;2.58;1.70;;;;;;;24.62;49.52;99664.19;1764696;79;20960;-74
2021/06/09 09:48:13;;;;;;;1.40;1.30;;;;;;;24.67;46.79;99663.48;1773944;79;21883;-73
2021/06/09 09:50:50;;;;;;;2.12;1.50;;;;;;;24.52;47.16;99667.97;1772315;80;20979;-73
2021/06/09 09:53:21;;;;;;;2.40;1.67;;;;;;;24.37;47.28;99661.62;1777629;80;21565;-73
2021/06/09 09:56:12;;;;;;;3.22;1.40;;;;;;;24.33;48.42;99655.58;1761722;79;21019;-73
2021/06/09 09:58:53;;;;;;;1.55;1.45;;;;;;;24.46;47.23;99660.25;1736726;79;21009;-74
2021/06/09 10:01:23;;;;;;;1.95;1.55;;;;;;;24.49;47.72;99657.08;1708915;82;21589;-73
2021/06/09 10:03:52;;;;;;;4.22;1.70;;;;;;;24.65;47.31;99657.49;1718615;80;21103;-73
2021/06/09 10:06:29;;;;;;;2.05;1.40;;;;;;;24.67;46.90;99660.25;1757842;79;20981;-73
2021/06/09 10:09:00;;;;;;;2.37;1.40;;;;;;;24.78;46.29;99659.45;1748739;80;21566;-73
2021/06/09 10:11:27;;;;;;;1.80;1.22;;;;;;;24.81;46.22;99655.48;1755687;79;21446;-73
2021/06/09 10:13:54;;;;;;;4.92;1.30;;;;;;;24.80;45.57;99648.41;1756433;79;22667;-73
2021/06/09 10:16:33;;;;;;;1.40;1.30;;;;;;;24.78;45.27;99649.17;1724515;80;21386;-74
2021/06/09 10:19:04;;;;;;;1.92;1.50;;;;;;;24.77;45.41;99658.33;1706415;82;20989;-73
2021/06/09 10:21:32;;;;;;;8.18;1.60;;;;;;;24.72;45.61;99650.13;1706552;83;21440;-73
2021/06/09 10:24:08;;;;;;;3.27;1.60;;;;;;;24.80;45.67;99646.56;1702123;82;21069;-73
2021/06/09 10:26:34;;;;;;;5.08;1.60;;;;;;;24.95;45.05;99637.17;1673734;84;21849;-73
2021/06/09 10:29:12;;;;;;;4.78;1.47;;;;;;;25.10;45.47;99640.28;1687051;83;20906;-73
2021/06/09 10:31:53;;;;;;;1.67;1.57;;;;;;;25.28;45.99;99637.97;1711035;82;21071;-73
2021/06/09 10:34:22;;;;;;;1.60;1.30;;;;;;;25.58;44.42;99634.61;1745874;82;21055;-73
2021/06/09 10:36:50;;;;;;;2.22;1.55;;;;;;;25.62;45.25;99634.41;1744300;81;21056;-73
2021/06/09 10:39:18;;;;;;;2.92;1.80;;;;;;;25.75;45.90;99630.65;1731396;81;21768;-73
2021/06/09 10:41:47;;;;;;;3.92;1.55;;;;;;;25.96;44.67;99625.97;1734899;81;21063;-73
2021/06/09 10:44:19;;;;;;;1.50;1.30;;;;;;;26.15;44.37;99627.95;1684646;82;21036;-73
2021/06/09 10:46:48;;;;;;;1.92;1.30;;;;;;;26.35;42.76;99622.63;1685857;82;21047;-74
2021/06/09 10:49:18;;;;;;;6.47;1.95;;;;;;;26.43;41.93;99626.30;1692770;83;20994;-74
2021/06/09 10:51:51;;;;;;;1.85;1.60;;;;;;;26.30;42.49;99618.47;1747618;80;21826;-74
2021/06/09 10:54:19;;;;;;;5.00;1.70;;;;;;;26.34;43.09;99617.72;1740375;80;21478;-74
2021/06/09 10:56:48;;;;;;;7.78;2.65;;;;;;;26.42;42.80;99626.02;1742645;80;21063;-73
2021/06/09 10:59:20;;;;;;;2.62;1.40;;;;;;;26.46;42.13;99621.77;1762364;80;21397;-74
2021/06/09 11:01:47;;;;;;;1.50;1.40;;;;;;;26.47;42.14;99620.70;1763341;80;21088;-73
2021/06/09 11:04:13;;;;;;;1.90;1.40;;;;;;;26.44;42.11;99617.11;1725712;81;21808;-74
2021/06/09 11:06:49;;;;;;;1.60;1.50;;;;;;;26.54;43.16;99601.06;1752047;80;21241;-75
2021/06/09 11:09:19;;;;;;;4.10;1.85;;;;;;;26.82;42.53;99602.32;1777872;79;21048;-75
2021/06/09 11:11:49;;;;;;;1.75;1.60;;;;;;;27.11;42.50;99603.61;1763590;80;20936;-76
2021/06/09 11:14:24;;;;;;;16.32;2.10;;;;;;;27.14;42.22;99598.24;1761163;80;20929;-74
2021/06/09 11:16:54;;;;;;;3.92;1.82;;;;;;;27.07;42.79;99595.16;1763508;80;21783;-73
2021/06/09 11:19:38;;;;;;;5.30;1.72;;;;;;;27.19;42.02;99606.44;1777211;79;21622;-74
2021/06/09 11:22:25;;;;;;;11.45;2.50;;;;;;;27.14;40.93;99603.13;1734849;81;20982;-74
2021/06/09 11:25:18;;;;;;;501.93;43.17;;;;;;;26.93;41.13;99601.16;1719955;80;21399;-73
2021/06/09 11:28:07;;;;;;;24.27;3.65;;;;;;;26.84;41.08;99602.64;1741127;81;21246;-74
2021/06/09 11:30:39;;;;;;;1.55;1.30;;;;;;;26.83;40.66;99596.40;1733491;80;22514;-74
2021/06/09 11:33:09;;;;;;;25.80;4.28;;;;;;;26.91;38.83;99588.36;1742288;81;20971;-74
2021/06/09 11:35:50;;;;;;;3.25;1.50;;;;;;;26.97;40.39;99587.39;1743797;80;21454;-74
2021/06/09 11:38:29;;;;;;;3.87;1.62;;;;;;;27.29;42.00;99589.77;1713009;81;21141;-74
2021/06/09 11:41:08;;;;;;;3.42;1.52;;;;;;;27.48;40.13;99579.45;1763076;80;20925;-74
2021/06/09 11:43:47;;;;;;;1.45;1.35;;;;;;;27.54;40.82;99578.45;1770877;80;21854;-74
2021/06/09 11:46:23;;;;;;;2.47;1.62;;;;;;;27.68;40.79;99580.27;1759164;80;20920;-74
2021/06/09 11:49:01;;;;;;;2.10;1.70;;;;;;;27.71;41.18;99577.06;1771421;80;21803;-75